createdAt,value
2018-09-28T00:00:08.915Z,16.97
2018-09-28T00:02:38.607Z,17.80
2018-09-28T00:05:08.251Z,20.47
2018-09-28T00:07:37.849Z,18.80
2018-09-28T00:10:07.444Z,16.93
2018-09-28T00:12:37.047Z,18.03
2018-09-28T00:15:06.742Z,16.03
2018-09-28T00:17:36.301Z,17.50
2018-09-28T00:20:06.000Z,16.97
2018-09-28T00:22:36.039Z,19.37
2018-09-28T00:25:05.890Z,18.43
2018-09-28T00:27:35.820Z,21.30
2018-09-28T00:30:05.566Z,18.47
2018-09-28T00:32:35.242Z,21.33
2018-09-28T00:35:05.005Z,20.90
2018-09-28T00:37:34.714Z,23.17
2018-09-28T00:40:04.408Z,19.50
2018-09-28T00:42:34.118Z,18.57
2018-09-28T00:45:03.740Z,17.73
2018-09-28T00:47:33.496Z,18.00
2018-09-28T00:50:03.236Z,18.57
2018-09-28T00:52:32.868Z,21.17
2018-09-28T00:55:02.510Z,18.90
2018-09-28T00:57:32.059Z,20.93
2018-09-28T01:00:01.608Z,20.40
2018-09-28T01:02:31.194Z,22.07
2018-09-28T01:05:01.309Z,17.97
2018-09-28T01:07:30.947Z,19.40
2018-09-28T01:10:00.447Z,18.67
2018-09-28T01:12:30.023Z,22.53
2018-09-28T01:14:59.593Z,23.03
2018-09-28T01:17:29.206Z,26.03
2018-09-28T01:19:59.666Z,21.97
2018-09-28T01:22:29.301Z,20.87
2018-09-28T01:24:58.837Z,23.70
2018-09-28T01:27:28.605Z,19.67
2018-09-28T01:29:58.232Z,22.60
2018-09-28T01:32:27.763Z,21.03
2018-09-28T01:34:57.256Z,21.13
2018-09-28T01:37:26.900Z,22.40
2018-09-28T01:39:56.431Z,22.33
2018-09-28T01:42:26.069Z,22.13
2018-09-28T01:44:55.589Z,24.27
2018-09-28T01:47:25.160Z,20.27
2018-09-28T01:49:54.740Z,24.63
2018-09-28T01:52:24.332Z,21.47
2018-09-28T01:54:53.837Z,22.20
2018-09-28T01:57:23.421Z,24.40
2018-09-28T01:59:52.955Z,23.83
2018-09-28T02:02:22.653Z,27.07
2018-09-28T02:04:52.218Z,24.50
2018-09-28T02:07:21.807Z,26.57
2018-09-28T02:09:51.621Z,25.93
2018-09-28T02:12:21.149Z,25.43
2018-09-28T02:14:50.687Z,24.73
2018-09-28T02:17:20.291Z,21.50
2018-09-28T02:19:49.864Z,26.40
2018-09-28T02:22:19.398Z,26.03
2018-09-28T02:24:48.949Z,27.27
2018-09-28T02:27:18.535Z,25.27
2018-09-28T02:29:48.082Z,26.97
2018-09-28T02:32:18.034Z,24.57
2018-09-28T02:34:47.544Z,30.20
2018-09-28T02:37:17.127Z,30.50
2018-09-28T02:39:46.863Z,26.93
2018-09-28T02:42:16.463Z,27.57
2018-09-28T02:44:46.061Z,27.43
2018-09-28T02:47:15.601Z,28.63
2018-09-28T02:49:45.174Z,28.03
2018-09-28T02:52:14.777Z,28.73
2018-09-28T02:54:44.392Z,33.03
2018-09-28T02:57:13.936Z,30.10
2018-09-28T02:59:43.579Z,31.87
2018-09-28T03:02:13.179Z,28.13
2018-09-28T03:04:43.120Z,25.77
2018-09-28T03:07:12.764Z,28.10
2018-09-28T03:09:42.428Z,32.53
2018-09-28T03:12:12.028Z,34.07
2018-09-28T03:14:41.647Z,33.17
2018-09-28T03:17:11.506Z,31.63
2018-09-28T03:19:41.136Z,36.73
2018-09-28T03:22:10.737Z,37.03
2018-09-28T03:24:40.293Z,36.60
2018-09-28T03:27:09.932Z,35.27
2018-09-28T03:29:39.576Z,38.90
2018-09-28T03:32:09.215Z,35.37
2018-09-28T03:34:38.861Z,40.63
2018-09-28T03:37:08.534Z,40.00
2018-09-28T03:39:38.370Z,37.80
2018-09-28T03:42:08.113Z,39.40
2018-09-28T03:44:37.721Z,40.37
2018-09-28T03:47:07.420Z,38.30
2018-09-28T03:49:37.023Z,39.60
2018-09-28T03:52:07.023Z,42.37
2018-09-28T03:54:36.626Z,38.23
2018-09-28T03:57:06.222Z,38.20
2018-09-28T03:59:35.800Z,40.10
2018-09-28T04:02:05.340Z,41.03
2018-09-28T04:04:34.884Z,41.07
2018-09-28T04:07:04.411Z,45.10
2018-09-28T04:09:34.034Z,44.60
2018-09-28T04:12:03.568Z,44.07
2018-09-28T04:14:33.103Z,43.57
2018-09-28T04:17:02.926Z,44.83
2018-09-28T04:19:32.511Z,48.47
2018-09-28T04:22:03.083Z,43.07
2018-09-28T04:24:33.207Z,43.43
2018-09-28T04:27:03.080Z,49.23
2018-09-28T04:29:32.653Z,51.17
2018-09-28T04:32:02.493Z,50.37
2018-09-28T04:34:31.990Z,40.73
2018-09-28T04:37:01.547Z,49.73
2018-09-28T04:39:31.295Z,48.77
2018-09-28T04:42:01.101Z,46.30
2018-09-28T04:44:30.604Z,45.93
2018-09-28T04:47:00.175Z,46.83
2018-09-28T04:49:29.755Z,46.80
2018-09-28T04:51:59.324Z,48.03
2018-09-28T04:54:28.868Z,44.43
2018-09-28T04:56:58.494Z,45.37
2018-09-28T04:59:28.074Z,41.77
2018-09-28T05:01:57.613Z,35.50
2018-09-28T05:04:27.215Z,34.20
2018-09-28T05:06:56.814Z,32.07
2018-09-28T05:09:26.340Z,34.43
2018-09-28T05:11:55.905Z,29.77
2018-09-28T05:14:25.435Z,28.20
2018-09-28T05:16:55.321Z,30.03
2018-09-28T05:19:24.929Z,30.10
2018-09-28T05:21:54.479Z,33.20
2018-09-28T05:24:24.378Z,29.00
2018-09-28T05:26:53.910Z,27.80
2018-09-28T05:29:23.932Z,27.57
2018-09-28T05:31:53.618Z,26.13
2018-09-28T05:34:23.404Z,28.47
2018-09-28T05:36:52.928Z,26.67
2018-09-28T05:39:22.510Z,24.90
2018-09-28T05:41:52.095Z,23.57
2018-09-28T05:44:21.692Z,20.20
2018-09-28T05:46:51.488Z,15.67
2018-09-28T05:49:21.025Z,15.67
2018-09-28T05:51:50.935Z,14.90
2018-09-28T05:54:20.482Z,14.17
2018-09-28T05:56:50.015Z,15.40
2018-09-28T05:59:24.814Z,15.30
2018-09-28T06:01:59.530Z,11.90
2018-09-28T06:04:34.360Z,13.60
2018-09-28T06:07:03.924Z,13.43
2018-09-28T06:09:33.413Z,9.17
2018-09-28T06:12:02.947Z,12.10
2018-09-28T06:14:32.479Z,9.33
2018-09-28T06:17:02.137Z,10.50
2018-09-28T06:19:31.695Z,10.27
2018-09-28T06:22:01.241Z,14.00
2018-09-28T06:24:30.793Z,11.60
2018-09-28T06:27:00.327Z,8.03
2018-09-28T06:29:30.096Z,10.67
2018-09-28T06:32:00.745Z,11.57
2018-09-28T06:34:30.309Z,12.43
2018-09-28T06:36:59.891Z,10.20
2018-09-28T06:39:29.409Z,15.63
2018-09-28T06:41:59.063Z,14.70
2018-09-28T06:44:28.553Z,9.83
2018-09-28T06:46:58.147Z,14.27
2018-09-28T06:49:27.731Z,13.93
2018-09-28T06:51:57.288Z,11.70
2018-09-28T06:54:26.836Z,14.57
2018-09-28T06:56:56.661Z,8.73
2018-09-28T06:59:26.214Z,9.60
2018-09-28T07:01:55.748Z,10.17
2018-09-28T07:04:25.277Z,9.93
2018-09-28T07:06:54.811Z,11.43
2018-09-28T07:09:24.373Z,12.53
2018-09-28T07:11:54.016Z,11.17
2018-09-28T07:14:23.753Z,8.17
2018-09-28T07:16:53.386Z,10.43
2018-09-28T07:19:22.932Z,14.63
2018-09-28T07:21:52.548Z,10.73
2018-09-28T07:24:22.133Z,8.33
2018-09-28T07:26:51.644Z,10.60
2018-09-28T07:29:21.157Z,11.63
2018-09-28T07:31:51.119Z,9.17
2018-09-28T07:34:21.035Z,10.40
2018-09-28T07:36:50.610Z,16.80
2018-09-28T07:39:20.187Z,11.33
2018-09-28T07:41:49.780Z,12.73
2018-09-28T07:44:19.314Z,12.00
2018-09-28T07:46:48.862Z,11.07
2018-09-28T07:49:18.471Z,13.13
2018-09-28T07:51:48.028Z,14.50
2018-09-28T07:54:18.666Z,15.90
2018-09-28T07:56:48.294Z,11.13
2018-09-28T07:59:17.877Z,9.50
2018-09-28T08:01:47.469Z,12.73
2018-09-28T08:04:18.164Z,10.57
2018-09-28T08:06:47.785Z,16.70
2018-09-28T08:09:17.333Z,10.77
2018-09-28T08:11:47.119Z,16.80
2018-09-28T08:14:17.777Z,12.83
2018-09-28T08:16:47.283Z,9.13
2018-09-28T08:19:16.797Z,11.00
2018-09-28T08:21:46.330Z,10.73
2018-09-28T08:24:15.902Z,10.77
2018-09-28T08:26:45.429Z,12.07
2018-09-28T08:29:14.988Z,14.60
2018-09-28T08:31:44.587Z,10.10
2018-09-28T08:34:14.115Z,9.00
2018-09-28T08:36:43.641Z,12.60
2018-09-28T08:39:13.182Z,15.97
2018-09-28T08:41:42.767Z,11.63
2018-09-28T08:44:12.282Z,10.03
2018-09-28T08:46:41.893Z,11.37
2018-09-28T08:49:11.658Z,11.47
2018-09-28T08:51:41.167Z,15.03
2018-09-28T08:54:10.735Z,8.37
2018-09-28T08:56:41.110Z,10.37
2018-09-28T08:59:10.619Z,11.43
2018-09-28T09:01:40.196Z,11.97
2018-09-28T09:04:09.754Z,11.13
2018-09-28T09:06:39.417Z,11.33
2018-09-28T09:09:11.239Z,9.83
2018-09-28T09:11:40.962Z,10.80
2018-09-28T09:14:10.703Z,7.20
2018-09-28T09:16:40.365Z,9.57
2018-09-28T09:19:09.919Z,13.73
2018-09-28T09:21:39.620Z,14.67
2018-09-28T09:24:09.666Z,10.07
2018-09-28T09:26:39.331Z,14.13
2018-09-28T09:29:09.312Z,13.87
2018-09-28T09:31:39.114Z,8.90
2018-09-28T09:34:08.808Z,11.57
2018-09-28T09:36:38.469Z,9.97
2018-09-28T09:39:09.770Z,11.83
2018-09-28T09:41:39.357Z,11.97
2018-09-28T09:44:09.239Z,8.97
2018-09-28T09:46:38.950Z,14.33
2018-09-28T09:49:08.654Z,10.33
2018-09-28T09:51:38.324Z,13.63
2018-09-28T09:54:08.145Z,11.27
2018-09-28T09:56:37.717Z,11.00
2018-09-28T09:59:07.284Z,9.20
2018-09-28T10:01:45.133Z,12.90
2018-09-28T10:04:14.912Z,9.27
2018-09-28T10:06:44.551Z,12.97
2018-09-28T10:09:14.957Z,8.30
2018-09-28T10:11:44.547Z,9.70
2018-09-28T10:14:14.100Z,9.33
2018-09-28T10:16:43.603Z,9.07
2018-09-28T10:19:13.289Z,14.60
2018-09-28T10:21:42.902Z,10.40
2018-09-28T10:24:12.473Z,8.47
2018-09-28T10:26:42.275Z,7.43
2018-09-28T10:29:11.975Z,9.33
2018-09-28T10:31:41.652Z,8.13
2018-09-28T10:34:11.169Z,8.73
2018-09-28T10:36:40.760Z,6.03
2018-09-28T10:39:10.857Z,9.07
2018-09-28T10:41:40.401Z,8.37
2018-09-28T10:44:09.966Z,10.50
2018-09-28T10:46:39.578Z,8.17
2018-09-28T10:49:09.045Z,9.00
2018-09-28T10:51:38.700Z,8.83
2018-09-28T10:54:08.285Z,10.60
2018-09-28T10:56:37.867Z,10.30
2018-09-28T10:59:07.440Z,13.03
2018-09-28T11:01:37.087Z,9.37
2018-09-28T11:04:06.734Z,6.60
2018-09-28T11:06:36.359Z,11.60
2018-09-28T11:09:09.133Z,6.93
2018-09-28T11:11:38.690Z,6.30
2018-09-28T11:14:08.390Z,9.87
2018-09-28T11:16:37.959Z,7.03
2018-09-28T11:19:07.543Z,5.70
2018-09-28T11:21:37.125Z,6.60
2018-09-28T11:24:06.685Z,6.97
2018-09-28T11:26:36.226Z,6.73
2018-09-28T11:29:05.827Z,7.73
2018-09-28T11:31:35.432Z,7.90
2018-09-28T11:34:05.124Z,8.73
2018-09-28T11:36:34.769Z,9.27
2018-09-28T11:39:05.486Z,9.60
2018-09-28T11:41:35.127Z,7.53
2018-09-28T11:44:04.889Z,5.43
2018-09-28T11:46:34.519Z,9.57
2018-09-28T11:49:04.171Z,7.43
2018-09-28T11:51:33.774Z,6.50
2018-09-28T11:54:03.361Z,6.60
2018-09-28T11:56:32.893Z,7.57
2018-09-28T11:59:03.516Z,7.90
2018-09-28T12:01:33.057Z,8.70
2018-09-28T12:04:02.593Z,4.70
2018-09-28T12:06:32.318Z,6.80
2018-09-28T12:09:01.696Z,5.53
2018-09-28T12:11:31.202Z,5.27
2018-09-28T12:14:00.729Z,7.40
2018-09-28T12:16:30.284Z,6.57
2018-09-28T12:18:59.799Z,5.83
2018-09-28T12:21:29.461Z,5.50
2018-09-28T12:23:59.017Z,7.70
2018-09-28T12:26:28.724Z,6.00
2018-09-28T12:28:58.568Z,9.00
2018-09-28T12:31:28.181Z,6.20
2018-09-28T12:33:57.721Z,11.40
2018-09-28T12:36:27.339Z,4.03
2018-09-28T12:38:56.873Z,4.43
2018-09-28T12:41:26.741Z,9.67
2018-09-28T12:43:56.236Z,6.87
2018-09-28T12:46:25.804Z,8.70
2018-09-28T12:48:55.362Z,5.60
2018-09-28T12:51:24.929Z,10.80
2018-09-28T12:53:55.696Z,8.40
2018-09-28T12:56:25.293Z,6.90
2018-09-28T12:58:54.766Z,5.67
2018-09-28T13:01:24.303Z,5.87
2018-09-28T13:03:53.866Z,5.43
2018-09-28T13:06:23.469Z,6.13
2018-09-28T13:08:53.099Z,4.13
2018-09-28T13:11:22.835Z,4.17
2018-09-28T13:13:52.419Z,5.40
2018-09-28T13:16:22.364Z,5.93
2018-09-28T13:18:51.882Z,4.57
2018-09-28T13:21:21.415Z,6.83
2018-09-28T13:23:50.967Z,6.57
2018-09-28T13:26:20.511Z,9.33
2018-09-28T13:28:50.073Z,8.13
2018-09-28T13:31:19.598Z,6.13
2018-09-28T13:33:49.125Z,6.60
2018-09-28T13:36:18.687Z,8.73
2018-09-28T13:38:48.383Z,5.37
2018-09-28T13:41:17.804Z,4.93
2018-09-28T13:43:47.402Z,4.80
2018-09-28T13:46:17.223Z,5.40
2018-09-28T13:48:47.944Z,6.23
2018-09-28T13:51:17.717Z,5.00
2018-09-28T13:53:49.574Z,3.60
2018-09-28T13:56:19.171Z,4.60
2018-09-28T13:58:49.099Z,3.70
2018-09-28T14:01:18.705Z,4.57
2018-09-28T14:03:48.322Z,5.60
2018-09-28T14:06:18.028Z,3.97
2018-09-28T14:08:47.593Z,7.60
2018-09-28T14:11:17.097Z,7.30
2018-09-28T14:13:46.668Z,4.67
2018-09-28T14:16:16.256Z,4.47
2018-09-28T14:18:45.931Z,6.07
2018-09-28T14:21:15.379Z,5.57
2018-09-28T14:23:45.017Z,5.53
2018-09-28T14:26:14.674Z,2.90
2018-09-28T14:28:44.613Z,5.93
2018-09-28T14:31:14.125Z,6.73
2018-09-28T14:33:43.819Z,4.70
2018-09-28T14:36:13.387Z,4.17
2018-09-28T14:38:42.960Z,5.73
2018-09-28T14:41:12.495Z,6.83
2018-09-28T14:43:42.131Z,8.10
2018-09-28T14:46:11.788Z,8.77
2018-09-28T14:48:41.459Z,5.57
2018-09-28T14:51:10.945Z,5.97
2018-09-28T14:53:49.154Z,4.83
2018-09-28T14:56:18.988Z,7.50
2018-09-28T14:58:48.611Z,5.83
2018-09-28T15:01:18.370Z,3.57
2018-09-28T15:03:47.852Z,3.97
2018-09-28T15:06:17.722Z,3.47
2018-09-28T15:08:47.700Z,4.37
2018-09-28T15:11:17.224Z,4.13
2018-09-28T15:13:46.803Z,3.80
2018-09-28T15:16:16.539Z,4.00
2018-09-28T15:18:46.108Z,6.87
2018-09-28T15:21:15.664Z,3.73
2018-09-28T15:23:45.516Z,4.80
2018-09-28T15:26:16.198Z,4.83
2018-09-28T15:28:45.744Z,7.00
2018-09-28T15:31:15.312Z,4.90
2018-09-28T15:33:44.854Z,8.73
2018-09-28T15:36:14.435Z,4.00
2018-09-28T15:38:45.882Z,6.43
2018-09-28T15:41:15.755Z,8.80
2018-09-28T15:43:45.421Z,7.63
2018-09-28T15:46:15.178Z,8.10
2018-09-28T15:48:44.976Z,3.50
2018-09-28T15:51:14.564Z,5.67
2018-09-28T15:53:44.148Z,4.50
2018-09-28T15:56:14.427Z,7.40
2018-09-28T15:58:47.445Z,5.07
2018-09-28T16:01:17.115Z,5.10
2018-09-28T16:03:47.235Z,5.10
2018-09-28T16:06:16.805Z,8.33
2018-09-28T16:08:46.378Z,7.20
2018-09-28T16:11:16.017Z,4.27
2018-09-28T16:13:45.577Z,4.67
2018-09-28T16:16:15.470Z,7.50
2018-09-28T16:18:45.143Z,6.00
2018-09-28T16:21:14.755Z,6.97
2018-09-28T16:23:44.384Z,5.87
2018-09-28T16:26:13.958Z,5.43
2018-09-28T16:28:44.625Z,7.30
2018-09-28T16:31:14.209Z,5.60
2018-09-28T16:33:43.782Z,10.10
2018-09-28T16:36:13.526Z,4.90
2018-09-28T16:38:43.199Z,6.60
2018-09-28T16:41:12.830Z,9.47
2018-09-28T16:43:42.561Z,5.90
2018-09-28T16:46:12.192Z,4.10
2018-09-28T16:48:41.973Z,7.67
2018-09-28T16:51:11.566Z,4.47
2018-09-28T16:53:41.148Z,2.67
2018-09-28T16:56:10.722Z,8.43
2018-09-28T16:58:40.335Z,5.03
2018-09-28T17:01:09.892Z,7.40
2018-09-28T17:03:39.489Z,6.33
2018-09-28T17:06:09.066Z,7.27
2018-09-28T17:08:38.716Z,7.50
2018-09-28T17:11:08.706Z,7.10
2018-09-28T17:13:38.392Z,4.47
2018-09-28T17:16:08.022Z,9.47
2018-09-28T17:18:37.732Z,4.90
2018-09-28T17:21:07.437Z,4.80
2018-09-28T17:23:37.130Z,7.17
2018-09-28T17:26:06.994Z,6.03
2018-09-28T17:28:36.817Z,7.27
2018-09-28T17:31:06.436Z,5.47
2018-09-28T17:33:36.100Z,6.37
2018-09-28T17:36:08.065Z,6.20
2018-09-28T17:38:38.321Z,5.97
2018-09-28T17:41:08.168Z,4.90
2018-09-28T17:43:37.738Z,5.87
2018-09-28T17:46:07.483Z,5.03
2018-09-28T17:48:37.211Z,10.27
2018-09-28T17:51:06.930Z,8.20
2018-09-28T17:53:36.591Z,7.03
2018-09-28T17:56:06.688Z,5.17
2018-09-28T17:58:36.407Z,4.63
2018-09-28T18:01:06.154Z,6.57
2018-09-28T18:03:35.712Z,9.13
2018-09-28T18:06:05.387Z,8.87
2018-09-28T18:08:35.225Z,6.30
2018-09-28T18:11:04.886Z,5.37
2018-09-28T18:13:34.480Z,10.73
2018-09-28T18:16:04.111Z,4.47
2018-09-28T18:18:33.776Z,7.60
2018-09-28T18:21:03.570Z,7.83
2018-09-28T18:23:33.310Z,7.00
2018-09-28T18:26:02.959Z,8.60
2018-09-28T18:28:32.643Z,7.10
2018-09-28T18:31:02.262Z,6.43
2018-09-28T18:33:31.954Z,9.27
2018-09-28T18:36:01.454Z,5.30
2018-09-28T18:38:31.070Z,6.00
2018-09-28T18:41:00.632Z,9.93
2018-09-28T18:43:30.190Z,6.13
2018-09-28T18:46:00.128Z,8.13
2018-09-28T18:48:29.951Z,7.90
2018-09-28T18:50:59.877Z,6.33
2018-09-28T18:53:29.498Z,8.40
2018-09-28T18:55:59.188Z,6.97
2018-09-28T18:58:28.892Z,7.60
2018-09-28T19:00:58.602Z,10.10
2018-09-28T19:03:28.271Z,5.97
2018-09-28T19:05:57.933Z,7.83
2018-09-28T19:08:27.604Z,6.87
2018-09-28T19:10:57.227Z,7.07
2018-09-28T19:13:26.814Z,7.73
2018-09-28T19:15:56.403Z,10.67
2018-09-28T19:18:25.990Z,7.70
2018-09-28T19:20:55.605Z,4.80
2018-09-28T19:23:25.172Z,10.70
2018-09-28T19:25:54.824Z,8.83
2018-09-28T19:28:24.481Z,8.90
2018-09-28T19:30:54.132Z,7.77
2018-09-28T19:33:23.810Z,5.87
2018-09-28T19:35:53.447Z,9.83
2018-09-28T19:38:23.135Z,6.20
2018-09-28T19:40:52.787Z,10.30
2018-09-28T19:43:22.462Z,7.37
2018-09-28T19:45:52.145Z,9.20
2018-09-28T19:48:21.754Z,8.37
2018-09-28T19:50:51.733Z,5.57
2018-09-28T19:53:21.382Z,4.30
2018-09-28T19:55:51.130Z,12.27
2018-09-28T19:58:21.080Z,6.43
2018-09-28T20:00:50.847Z,12.23
2018-09-28T20:03:20.496Z,5.73
2018-09-28T20:05:50.148Z,10.50
2018-09-28T20:08:20.012Z,8.23
2018-09-28T20:10:49.662Z,7.87
2018-09-28T20:13:19.297Z,6.87
2018-09-28T20:15:48.989Z,4.50
2018-09-28T20:18:18.637Z,9.07
2018-09-28T20:20:48.272Z,10.33
2018-09-28T20:23:17.926Z,5.13
2018-09-28T20:25:47.591Z,7.90
2018-09-28T20:28:17.226Z,4.47
2018-09-28T20:30:46.959Z,6.87
2018-09-28T20:33:16.559Z,10.53
2018-09-28T20:35:46.273Z,7.57
2018-09-28T20:38:15.934Z,7.17
2018-09-28T20:40:45.587Z,5.73
2018-09-28T20:43:15.223Z,9.20
2018-09-28T20:45:44.815Z,7.20
2018-09-28T20:48:14.347Z,9.10
2018-09-28T20:50:43.972Z,10.40
2018-09-28T20:53:13.664Z,6.60
2018-09-28T20:55:43.316Z,8.57
2018-09-28T20:58:13.134Z,12.60
2018-09-28T21:00:42.755Z,8.77
2018-09-28T21:03:12.362Z,7.73
2018-09-28T21:05:41.941Z,12.30
2018-09-28T21:08:11.620Z,6.20
2018-09-28T21:10:41.255Z,11.87
2018-09-28T21:13:10.887Z,10.63
2018-09-28T21:15:40.516Z,6.53
2018-09-28T21:18:10.148Z,8.43
2018-09-28T21:20:39.814Z,9.03
2018-09-28T21:23:09.396Z,6.37
2018-09-28T21:25:39.085Z,5.40
2018-09-28T21:28:08.696Z,6.87
2018-09-28T21:30:38.631Z,11.33
2018-09-28T21:33:08.160Z,7.37
2018-09-28T21:35:37.782Z,6.57
2018-09-28T21:38:07.592Z,9.20
2018-09-28T21:40:37.216Z,8.50
2018-09-28T21:43:07.034Z,7.83
2018-09-28T21:45:36.508Z,9.10
2018-09-28T21:48:06.074Z,8.10
2018-09-28T21:50:35.618Z,7.37
2018-09-28T21:53:05.279Z,9.13
2018-09-28T21:55:34.918Z,9.50
2018-09-28T21:58:04.549Z,5.97
2018-09-28T22:00:37.356Z,6.60
2018-09-28T22:03:08.024Z,9.33
2018-09-28T22:05:37.666Z,7.17
2018-09-28T22:08:07.306Z,8.23
2018-09-28T22:10:36.893Z,8.20
2018-09-28T22:13:06.559Z,6.07
2018-09-28T22:15:36.135Z,7.00
2018-09-28T22:18:05.793Z,9.87
2018-09-28T22:20:35.421Z,5.93
2018-09-28T22:23:05.210Z,6.83
2018-09-28T22:25:34.900Z,5.13
2018-09-28T22:28:04.718Z,6.50
2018-09-28T22:30:34.360Z,6.00
2018-09-28T22:33:03.968Z,6.97
2018-09-28T22:35:33.674Z,11.30
2018-09-28T22:38:03.380Z,9.17
2018-09-28T22:40:35.196Z,8.23
2018-09-28T22:43:04.742Z,5.10
2018-09-28T22:45:34.298Z,7.43
2018-09-28T22:48:03.850Z,5.63
2018-09-28T22:50:33.312Z,5.40
2018-09-28T22:53:02.870Z,8.80
2018-09-28T22:55:32.471Z,6.13
2018-09-28T22:58:02.095Z,10.37
2018-09-28T23:00:31.599Z,10.70
2018-09-28T23:03:01.212Z,9.30
2018-09-28T23:05:30.785Z,6.87
2018-09-28T23:08:00.633Z,7.97
2018-09-28T23:10:30.302Z,8.03
2018-09-28T23:12:59.965Z,11.33
2018-09-28T23:15:29.596Z,6.80
2018-09-28T23:17:59.575Z,5.10
2018-09-28T23:20:29.210Z,6.43
2018-09-28T23:22:58.868Z,10.57
2018-09-28T23:25:28.463Z,10.67
2018-09-28T23:27:58.062Z,6.87
2018-09-28T23:30:27.687Z,10.40
2018-09-28T23:32:57.237Z,9.93
2018-09-28T23:35:26.843Z,7.20
2018-09-28T23:37:56.459Z,8.30
2018-09-28T23:40:26.071Z,7.57
2018-09-28T23:42:55.615Z,8.57
2018-09-28T23:45:25.189Z,9.83
2018-09-28T23:47:54.701Z,9.43
2018-09-28T23:50:24.279Z,9.47
2018-09-28T23:52:53.839Z,10.03
2018-09-28T23:55:23.351Z,9.03
2018-09-28T23:57:53.356Z,9.70
